createdAt,value
2022-10-14T00:05:34.114Z,101116.13
2022-10-14T00:11:25.945Z,101113.28
2022-10-14T00:17:12.557Z,101113.84
2022-10-14T00:22:59.171Z,101119.03
2022-10-14T00:28:46.005Z,101115.44
2022-10-14T00:34:32.689Z,101100.16
2022-10-14T00:40:20.014Z,101102.22
2022-10-14T00:46:13.453Z,101104.81
2022-10-14T00:52:13.601Z,101083.69
2022-10-14T00:58:00.587Z,101098.78
2022-10-14T01:03:47.707Z,101096.56
2022-10-14T01:09:55.587Z,101090.19
2022-10-14T01:15:45.241Z,101093.41
2022-10-14T01:21:55.977Z,101090.84
2022-10-14T01:27:42.531Z,101085.50
2022-10-14T01:33:37.980Z,101095.38
2022-10-14T01:39:27.698Z,101096.06
2022-10-14T01:45:22.275Z,101078.94
2022-10-14T01:51:18.384Z,101076.97
2022-10-14T01:57:10.223Z,101061.50
2022-10-14T02:02:57.128Z,101067.38
2022-10-14T02:08:59.120Z,101064.25
2022-10-14T02:15:02.779Z,101052.66
2022-10-14T02:21:11.276Z,101049.44
2022-10-14T02:27:01.930Z,101045.28
2022-10-14T02:32:50.071Z,101046.25
2022-10-14T02:38:38.148Z,101038.44
2022-10-14T02:44:24.930Z,101019.81
2022-10-14T02:50:12.325Z,101007.53
2022-10-14T02:55:58.981Z,100993.38
2022-10-14T03:01:45.840Z,100988.28
2022-10-14T03:07:33.020Z,100970.72
2022-10-14T03:13:23.501Z,100968.94
2022-10-14T03:19:10.200Z,100967.81
2022-10-14T03:25:05.281Z,100963.88
2022-10-14T03:31:07.881Z,100966.63
2022-10-14T03:37:16.296Z,100946.41
2022-10-14T03:43:09.253Z,100945.09
2022-10-14T03:49:05.349Z,100948.56
2022-10-14T03:54:52.997Z,100937.81
2022-10-14T04:00:39.952Z,100927.59
2022-10-14T04:06:39.960Z,100927.91
2022-10-14T04:12:28.311Z,100913.59
2022-10-14T04:18:26.903Z,100913.53
2022-10-14T04:24:16.729Z,100904.25
2022-10-14T04:30:12.485Z,100889.56
2022-10-14T04:36:09.377Z,100885.16
2022-10-14T04:42:00.082Z,100883.91
2022-10-14T04:47:48.881Z,100883.03
2022-10-14T04:53:38.899Z,100869.69
2022-10-14T05:00:00.856Z,100860.72
2022-10-14T05:06:06.324Z,100863.59
2022-10-14T05:11:54.413Z,100853.09
2022-10-14T05:17:45.317Z,100853.81
2022-10-14T05:23:35.653Z,100846.53
2022-10-14T05:29:22.848Z,100842.53
2022-10-14T05:35:11.372Z,100841.66
2022-10-14T05:41:00.842Z,100846.50
2022-10-14T05:46:48.209Z,100838.22
2022-10-14T05:52:35.745Z,100844.44
2022-10-14T05:58:31.967Z,100821.53
2022-10-14T06:04:21.410Z,100803.72
2022-10-14T06:10:08.751Z,100818.88
2022-10-14T06:15:55.553Z,100818.28
2022-10-14T06:21:42.524Z,100810.69
2022-10-14T06:27:36.915Z,100804.22
2022-10-14T06:33:23.892Z,100805.31
2022-10-14T06:39:11.075Z,100807.97
2022-10-14T06:44:58.069Z,100818.09
2022-10-14T06:50:45.047Z,100826.59
2022-10-14T06:56:35.465Z,100819.09
2022-10-14T07:02:23.298Z,100811.94
2022-10-14T07:08:14.536Z,100814.66
2022-10-14T07:14:02.840Z,100809.78
2022-10-14T07:19:49.646Z,100820.28
2022-10-14T07:25:40.011Z,100814.75
2022-10-14T07:31:27.772Z,100820.22
2022-10-14T07:37:14.825Z,100817.34
2022-10-14T07:43:01.739Z,100814.69
2022-10-14T07:48:59.526Z,100810.97
2022-10-14T07:54:46.586Z,100829.63
2022-10-14T08:00:35.461Z,100840.25
2022-10-14T08:06:23.054Z,100827.28
2022-10-14T08:12:09.946Z,100822.06
2022-10-14T08:17:56.994Z,100837.97
2022-10-14T08:23:43.761Z,100846.41
2022-10-14T08:29:30.403Z,100847.34
2022-10-14T08:35:17.413Z,100831.56
2022-10-14T08:41:13.621Z,100836.06
2022-10-14T08:47:04.798Z,100825.84
2022-10-14T08:52:54.276Z,100828.72
2022-10-14T08:58:46.595Z,100822.31
2022-10-14T09:04:36.276Z,100824.00
2022-10-14T09:10:31.317Z,100804.38
2022-10-14T09:16:24.781Z,100800.63
2022-10-14T09:22:14.492Z,100801.88
2022-10-14T09:28:01.933Z,100792.91
2022-10-14T09:33:48.563Z,100790.69
2022-10-14T09:39:40.638Z,100782.81
2022-10-14T09:45:30.898Z,100759.63
2022-10-14T09:51:37.943Z,100758.44
2022-10-14T09:57:26.036Z,100773.66
2022-10-14T10:03:46.187Z,100764.59
2022-10-14T10:09:33.952Z,100762.69
2022-10-14T10:15:21.643Z,100769.28
2022-10-14T10:21:17.833Z,100745.88
2022-10-14T10:27:23.199Z,100734.72
2022-10-14T10:33:42.820Z,100727.63
2022-10-14T10:39:47.483Z,100730.69
2022-10-14T10:45:38.016Z,100725.28
2022-10-14T10:52:21.434Z,100735.75
2022-10-14T10:58:11.998Z,100730.19
2022-10-14T11:04:26.348Z,100728.03
2022-10-14T11:10:45.170Z,100719.53
2022-10-14T11:16:53.889Z,100719.50
2022-10-14T11:22:46.790Z,100696.97
2022-10-14T11:28:46.013Z,100681.03
2022-10-14T11:35:17.915Z,100665.72
2022-10-14T11:41:23.307Z,100657.09
2022-10-14T11:47:24.852Z,100654.44
2022-10-14T11:53:23.451Z,100660.34
2022-10-14T11:59:48.898Z,100662.50
2022-10-14T12:05:45.751Z,100661.00
2022-10-14T12:11:46.994Z,100653.38
2022-10-14T12:17:53.199Z,100646.44
2022-10-14T12:23:47.277Z,100633.19
2022-10-14T12:29:44.198Z,100628.13
2022-10-14T12:35:52.387Z,100617.59
2022-10-14T12:41:43.593Z,100614.63
2022-10-14T12:47:35.087Z,100620.31
2022-10-14T12:53:26.451Z,100616.28
2022-10-14T12:59:25.505Z,100602.47
2022-10-14T13:05:44.092Z,100607.34
2022-10-14T13:11:31.033Z,100593.81
2022-10-14T13:17:41.999Z,100591.47
2022-10-14T13:23:31.323Z,100584.69
2022-10-14T13:29:47.170Z,100596.13
2022-10-14T13:35:48.635Z,100581.22
2022-10-14T13:41:37.867Z,100576.38
2022-10-14T13:47:26.356Z,100565.47
2022-10-14T13:53:26.501Z,100564.19
2022-10-14T13:59:43.440Z,100541.47
2022-10-14T14:05:36.190Z,100546.63
2022-10-14T14:11:31.880Z,100525.31
2022-10-14T14:17:21.098Z,100530.03
2022-10-14T14:23:15.053Z,100542.09
2022-10-14T14:29:17.307Z,100528.41
2022-10-14T14:35:13.083Z,100510.41
2022-10-14T14:41:06.781Z,100526.72
2022-10-14T14:46:58.246Z,100516.59
2022-10-14T14:52:46.936Z,100505.25
2022-10-14T14:58:47.345Z,100515.59
2022-10-14T15:04:37.398Z,100504.78
2022-10-14T15:10:28.665Z,100497.06
2022-10-14T15:16:42.873Z,100510.00
2022-10-14T15:22:30.434Z,100509.00
2022-10-14T15:28:35.596Z,100502.97
2022-10-14T15:34:22.852Z,100508.88
2022-10-14T15:40:21.542Z,100489.94
2022-10-14T15:46:32.116Z,100487.88
2022-10-14T15:52:21.728Z,100487.25
2022-10-14T15:58:11.523Z,100484.38
2022-10-14T16:03:58.150Z,100498.66
2022-10-14T16:09:47.425Z,100474.22
2022-10-14T16:15:53.833Z,100477.59
2022-10-14T16:21:44.650Z,100474.16
2022-10-14T16:27:32.936Z,100479.88
2022-10-14T16:33:22.227Z,100479.69
2022-10-14T16:39:10.319Z,100479.50
2022-10-14T16:44:57.041Z,100484.91
2022-10-14T16:50:43.760Z,100473.25
2022-10-14T16:56:53.620Z,100482.09
2022-10-14T17:02:44.094Z,100475.81
2022-10-14T17:08:32.676Z,100491.78
2022-10-14T17:28:21.701Z,100501.88
2022-10-14T17:34:44.568Z,100497.50
2022-10-14T17:47:58.919Z,100507.59
2022-10-14T17:53:50.000Z,100513.69
2022-10-14T17:59:53.538Z,100508.53
2022-10-14T18:05:49.453Z,100518.88
2022-10-14T18:17:59.447Z,100503.94
2022-10-14T18:23:54.788Z,100511.81
2022-10-14T18:29:45.753Z,100529.56
2022-10-14T18:42:34.902Z,100538.22
2022-10-14T18:48:22.526Z,100531.59
2022-10-14T18:54:14.665Z,100537.38
2022-10-14T19:00:09.378Z,100525.41
2022-10-14T19:06:02.789Z,100523.66
2022-10-14T19:11:56.363Z,100522.84
2022-10-14T19:17:52.265Z,100515.59
2022-10-14T19:23:46.623Z,100526.59
2022-10-14T19:29:36.215Z,100532.66
2022-10-14T19:35:23.719Z,100527.81
2022-10-14T19:41:13.346Z,100526.53
2022-10-14T19:47:01.468Z,100524.81
2022-10-14T19:52:55.728Z,100520.69
2022-10-14T19:59:22.792Z,100516.38
2022-10-14T20:05:20.557Z,100506.59
2022-10-14T20:11:12.739Z,100503.19
2022-10-14T20:16:59.462Z,100502.97
2022-10-14T20:32:13.812Z,100486.16
2022-10-14T20:38:04.085Z,100489.50
2022-10-14T20:43:52.254Z,100479.59
2022-10-14T20:49:43.063Z,100461.97
2022-10-14T20:55:31.843Z,100464.88
2022-10-14T21:01:18.829Z,100470.69
2022-10-14T21:07:06.115Z,100466.09
2022-10-14T21:12:55.046Z,100473.59
2022-10-14T21:18:45.457Z,100463.75
2022-10-14T21:24:36.120Z,100451.53
2022-10-14T21:30:22.790Z,100452.38
2022-10-14T21:36:14.826Z,100445.63
2022-10-14T21:42:01.488Z,100427.88
2022-10-14T21:47:48.314Z,100439.78
2022-10-14T21:53:35.582Z,100454.28
2022-10-14T21:59:22.413Z,100447.75
2022-10-14T22:05:09.303Z,100438.50
2022-10-14T22:10:55.894Z,100431.59
2022-10-14T22:16:42.805Z,100415.34
2022-10-14T22:22:29.723Z,100414.56
2022-10-14T22:28:16.515Z,100435.56
2022-10-14T22:34:05.477Z,100422.81
2022-10-14T22:39:52.331Z,100413.38
2022-10-14T22:45:39.135Z,100407.16
2022-10-14T22:51:46.188Z,100411.72
2022-10-14T22:57:35.872Z,100409.13
2022-10-14T23:03:23.971Z,100409.34
2022-10-14T23:09:13.234Z,100389.47
2022-10-14T23:15:00.018Z,100385.09
2022-10-14T23:20:46.789Z,100373.31
2022-10-14T23:26:35.467Z,100367.94
2022-10-14T23:32:22.301Z,100377.38
2022-10-14T23:38:12.200Z,100362.22
2022-10-14T23:43:59.200Z,100366.88
2022-10-14T23:49:45.863Z,100356.91
2022-10-14T23:55:32.518Z,100356.41
